KCRG/CRG METAR and TAF weather

Enter ICAO airport designator
Station Type Date Time Source
KCRG METAR 2019/02/23 22:53 UTC NOAA

KCRG 232253Z 12006KT 10SM FEW060 OVC110 21/20 A3006 RMK AO2 RAE04 SLP179 P0000 T02060200


Station Type Date Time Source
KCRG Decoded METAR 2019/02/23 22:53 UTC NOAA

JACKSONVILLE CRAIG MUN, FL, United States (KCRG) 30-20N 81-31W 13M
Feb 23, 2019 - 05:53 PM EST / 2019.02.23 2253 UTC
Wind: from the ESE (120 degrees) at 7 MPH (6 KT):0
Visibility: 10 mile(s):0
Sky conditions: overcast
Precipitation last hour: A trace
Temperature: 69.1 F (20.6 C)
Dew Point: 68.0 F (20.0 C)
Relative Humidity: 96%
Pressure (altimeter): 30.06 in. Hg (1017 hPa)
ob: KCRG 232253Z 12006KT 10SM FEW060 OVC110 21/20 A3006 RMK AO2 RAE04 SLP179 P0000 T02060200
cycle: 23

Station Type Date Time Source
KCRG TAF 2019/02/23 22:06 UTC NOAA

TAF
AMD KCRG 232203Z 2322/2418 10008KT P6SM VCSH SCT030 BKN050
TEMPO 2322/2324 5SM BR SCT003 BKN006
FM240100 13004KT 6SM BR SCT007 BKN040
FM240400 19004KT 6SM BR SCT003 BKN035
FM240600 21004KT 1SM BR OVC003
FM240900 22005KT 1/2SM FG OVC001
FM241400 22012KT 5SM BR BKN005 OVC010
FM241600 24014G21KT P6SM VCSH SCT010 OVC050


Example: see airport list